This is the latest recevied weather packets stored in our database for station/object N4DWK. If no packets are shown the sender has not sent any weather packets the latest 10 day(s).
| Time | Temp. | Humidity | Pressure | Rain* | Wind** | Luminosity | Snow |
|---|---|---|---|---|---|---|---|
| 1777500605 | 19.44° C | 81% | 1007.9 hPa | 0 mm | - | 19 W/m² | - |
| 1777500307 | 19.44° C | 81% | 1008 hPa | 0 mm | - | 19 W/m² | - |
| 1777500006 | 19.44° C | 81% | 1007.9 hPa | 0 mm | - | 19 W/m² | - |
| 1777499706 | 19.44° C | 81% | 1008 hPa | 0 mm | - | 23 W/m² | - |
| 1777499406 | 19.44° C | 81% | 1008 hPa | 0 mm | - | 28 W/m² | - |
| 1777499106 | 19.44° C | 80% | 1008.1 hPa | 0 mm | - | 19 W/m² | - |
| 1777498805 | 19.44° C | 80% | 1008.2 hPa | 0 mm | - | 14 W/m² | - |
| 1777498505 | 19.44° C | 80% | 1008.1 hPa | 0 mm | - | 21 W/m² | - |
| 1777498206 | 19.44° C | 81% | 1008.2 hPa | 0 mm | - | 21 W/m² | - |
| 1777497905 | 19.44° C | 80% | 1008.2 hPa | 0 mm | - | 32 W/m² | - |
| 1777497606 | 19.44° C | 80% | 1008.3 hPa | 0 mm | - | 26 W/m² | - |
| 1777497306 | 20° C | 80% | 1008.4 hPa | 0 mm | - | 28 W/m² | - |
| 1777497006 | 20° C | 79% | 1008.4 hPa | 0 mm | - | 39 W/m² | - |
| 1777496706 | 20° C | 79% | 1008.4 hPa | 0 mm | - | 44 W/m² | - |
| 1777496406 | 20° C | 78% | 1008.3 hPa | 0 mm | - | 63 W/m² | - |
| 1777496106 | 20° C | 77% | 1008.6 hPa | 0 mm | - | 37 W/m² | - |
| 1777495806 | 20° C | 77% | 1008.7 hPa | 0 mm | - | 25 W/m² | - |
| 1777495506 | 20° C | 77% | 1008.7 hPa | 0 mm | - | 33 W/m² | - |
| 1777495206 | 20° C | 77% | 1008.7 hPa | 0 mm | - | 30 W/m² | - |
| 1777494905 | 20° C | 77% | 1008.6 hPa | 0 mm | - | 42 W/m² | - |
| 1777494605 | 20° C | 77% | 1008.7 hPa | 0 mm | - | 44 W/m² | - |
| 1777494306 | 20° C | 77% | 1008.8 hPa | 0 mm | - | 39 W/m² | - |
| 1777494005 | 20° C | 77% | 1009 hPa | 0 mm | - | 37 W/m² | - |
| 1777493706 | 20° C | 77% | 1009.1 hPa | 0 mm | - | 40 W/m² | - |
| 1777493406 | 20° C | 77% | 1009.3 hPa | 0 mm | - | 39 W/m² | - |
* Rain latest hour (hover to see other rain measurements)
** Current wind speed in m/s (hover to see current wind gust speed)